Terminal Aerodrome Forecast
Issued by NWS

Home | Current Version | Previous Version | Graphics & Text | Print | Product List | Glossary On
Versions: 1 2 3 4 5 6 7 8 9 10 11 12 13 14 15 16 17 18 19 20
000
FTUS43 KLSX 222321
TAFSUS
TAF
KSUS 222321Z 2300/2324 07007KT 5SM -SHRA OVC045
     FM230800 05008KT 6SM -SHRA SCT025 OVC045
     FM231200 04012G18KT P6SM VCSH BKN025 OVC050
     FM231800 04012G20KT P6SM OVC050=

USA.gov is the U.S. government's official web portal to all federal, state and local government web resources and services.